首页
METAR-TAF:

METAR-TAF

机场 :

乔治·贝斯特贝尔法斯特城市机场

贝尔法斯特, 北爱尔兰

纬度: 54-36N, 经度: 005-53W, 海拔: 5米

当前天气观测

该预报发布于1小时和8分钟前的09:20 UTC
风速9节,风向西,在西南西转西北之间变化
温度 15°C
湿度 82%
气压 1019 hPa
能见度10公里或以上
少量云层高于1900英尺
多云层高于2400英尺
阴天层高于4900英尺

METAR: EGAC 130920Z 26009KT 230V300 9999 FEW019 BKN024 OVC049 15/12 Q1019

时间: 11:28 (10:28 UTC)

预报

该预报发布于2小时和26分钟前的08:02 UTC
预报有效从13日的 09点(UTC)到 13日的 18点(UTC)
风速12节,风向西
能见度10公里或以上
散云层高于3000英尺
多云层高于4500英尺
几率 30% :
短暂存在
从 13日的 09点(UTC)到 13日的 12点(UTC)
能見度: 6000
多云层高于1400英尺
小毛毛雨
成为
从 13日的 14点(UTC)到 13日的 18点(UTC)
风速9节,风向北转西北

TAF: EGAC 130802Z 1309/1318 26012KT 9999 SCT030 BKN045 PROB30 TEMPO 1309/1312 6000 -DZ BKN014 BECMG 1314/1318 33009KT

超过4000个机场的气象观测和天气预报(METAR&TAF报告)。

可查询的气象台以黄色和红色小点在地图上表示。

将鼠标移到小点上方,可查看气象台名称。

然后点击查看天气观测和预报。

如需切换地图:点击带黑十字的绿色按钮放大地图;点击带横线的绿色按钮缩小地图;或者点击绿色箭头查看邻近地区的地图。


METAR-TAF: